This is the latest recevied weather packets stored in our database for station/object KL1SF-7. If no packets are shown the sender has not sent any weather packets the latest 1 day(s).
| Time | Temp. | Humidity | Pressure | Rain* | Wind** | Luminosity | Snow |
|---|---|---|---|---|---|---|---|
| 1777989812 | 4.44° C | 62% | 1012.5 hPa | 0 mm | 0 m/s | - | - |
| 1777989214 | 3.33° C | 64% | 1012.7 hPa | 0 mm | 0 m/s | - | - |
| 1777988604 | 2.78° C | 67% | 1012.7 hPa | 0 mm | 0 m/s | - | - |
| 1777988020 | 2.22° C | 69% | 1012.3 hPa | 0 mm | 0 m/s | - | - |
| 1777987401 | 1.67° C | 70% | 1012.2 hPa | 0 mm | 0 m/s | - | - |
| 1777986811 | 1.11° C | 71% | 1012.2 hPa | 0 mm | 0 m/s | - | - |
| 1777986224 | 1.11° C | 70% | 1012.4 hPa | 0 mm | 0 m/s | - | - |
| 1777985604 | 1.11° C | 70% | 1012.4 hPa | 0 mm | 0 m/s | - | - |
| 1777985014 | 1.11° C | 69% | 1012.4 hPa | 0 mm | 0 m/s | - | - |
| 1777984411 | 1.67° C | 68% | 1011.8 hPa | 0 mm | 0 m/s | - | - |
| 1777983813 | 1.67° C | 68% | 1011.8 hPa | 0 mm | 0 m/s | - | - |
| 1777983201 | 1.67° C | 68% | 1011.8 hPa | 0 mm | 0 m/s | - | - |
| 1777982614 | 1.67° C | 69% | 1012 hPa | 0 mm | 0 m/s | - | - |
| 1777982015 | 1.67° C | 69% | 1012.1 hPa | 0 mm | 0 m/s | - | - |
| 1777981404 | 1.11° C | 69% | 1012.1 hPa | 0 mm | 0 m/s | - | - |
| 1777980817 | 1.11° C | 69% | 1012.2 hPa | 0 mm | 0 m/s | - | - |
| 1777980201 | 1.11° C | 70% | 1012.4 hPa | 0 mm | 0 m/s | - | - |
| 1777979612 | 1.11° C | 69% | 1012.4 hPa | 0 mm | 0 m/s | - | - |
| 1777979025 | 1.11° C | 69% | 1013 hPa | 0 mm | 0 m/s | - | - |
| 1777978405 | 1.11° C | 68% | 1013 hPa | 0 mm | 0 m/s | - | - |
| 1777977815 | 1.11° C | 66% | 1013 hPa | 0 mm | 0 m/s | - | - |
| 1777977211 | 1.11° C | 65% | 1013.1 hPa | 0 mm | 0 m/s | - | - |
| 1777976616 | 1.67° C | 64% | 1013.3 hPa | 0 mm | 0 m/s | - | - |
| 1777976006 | 1.67° C | 61% | 1013.3 hPa | 0 mm | 0 m/s | - | - |
| 1777975419 | 2.22° C | 61% | 1012.8 hPa | 0 mm | 0 m/s | - | - |
* Rain since midnight (hover to see other rain measurements)
** Current wind speed in m/s (hover to see current wind gust speed)